Time;durP1;ratioP1;P1;durP2;ratioP2;P2;SDS_P1;SDS_P2;PMS_P1;PMS_P2;Temp;Humidity;BMP_temperature;BMP_pressure;BME280_temperature;BME280_humidity;BME280_pressure;Samples;Min_cycle;Max_cycle;Signal;HPM_P1;HPM_P2
2021/04/29 00:00:16;;;;;;;29.63;21.05;;;22.40;45.70;;;;;;5112605;28;20435;-38
2021/04/29 00:02:43;;;;;;;27.65;20.33;;;22.40;45.70;;;;;;5112925;27;20097;-38
2021/04/29 00:05:17;;;;;;;30.23;21.83;;;22.40;46.30;;;;;;5113331;28;20082;-38
2021/04/29 00:07:44;;;;;;;28.70;20.27;;;22.40;45.70;;;;;;5103530;27;20043;-39
2021/04/29 00:10:15;;;;;;;32.08;21.05;;;22.40;45.70;;;;;;5114442;28;20043;-38
2021/04/29 00:12:42;;;;;;;30.38;21.50;;;22.40;45.70;;;;;;5113435;27;20112;-38
2021/04/29 00:15:13;;;;;;;28.88;19.95;;;22.40;45.70;;;;;;5113124;28;20054;-38
2021/04/29 00:17:42;;;;;;;31.33;21.90;;;22.40;45.70;;;;;;5113477;28;20054;-38
2021/04/29 00:20:11;;;;;;;30.13;20.48;;;22.40;45.70;;;;;;5113533;28;20393;-37
2021/04/29 00:22:38;;;;;;;31.40;22.08;;;22.40;45.70;;;;;;5113338;28;20042;-37
2021/04/29 00:25:06;;;;;;;29.00;20.45;;;22.40;45.70;;;;;;5113112;28;20097;-37
2021/04/29 00:27:32;;;;;;;30.88;20.30;;;22.40;45.70;;;;;;5112868;28;20043;-37
2021/04/29 00:29:59;;;;;;;29.83;20.90;;;22.40;45.70;;;;;;5112815;28;20040;-37
2021/04/29 00:32:26;;;;;;;28.67;20.40;;;22.40;45.70;;;;;;5112489;28;20047;-37
2021/04/29 00:34:53;;;;;;;29.98;20.50;;;22.40;45.70;;;;;;5102462;28;20058;-38
2021/04/29 00:37:19;;;;;;;27.75;19.52;;;22.40;45.70;;;;;;5113644;28;20124;-38
2021/04/29 00:39:46;;;;;;;28.48;19.88;;;22.30;45.70;;;;;;5102619;28;20047;-37
2021/04/29 00:42:14;;;;;;;29.23;19.40;;;22.40;45.70;;;;;;5112716;27;20047;-38
2021/04/29 00:44:41;;;;;;;29.73;20.05;;;22.40;45.70;;;;;;5112404;28;20052;-38
2021/04/29 00:47:08;;;;;;;30.73;20.67;;;22.40;45.70;;;;;;5111523;28;20043;-38
2021/04/29 00:49:35;;;;;;;29.52;19.40;;;22.30;45.70;;;;;;5113232;27;20119;-38
2021/04/29 00:52:02;;;;;;;28.77;19.40;;;22.40;45.70;;;;;;5113145;28;20047;-38
2021/04/29 00:54:30;;;;;;;28.35;19.25;;;22.30;45.70;;;;;;5112512;28;20154;-38
2021/04/29 00:56:57;;;;;;;30.35;19.55;;;22.40;45.70;;;;;;5112638;27;20058;-38
2021/04/29 00:59:24;;;;;;;26.88;18.67;;;22.40;45.70;;;;;;5111637;28;20051;-37
2021/04/29 01:02:00;;;;;;;26.85;18.95;;;22.30;45.70;;;;;;5112223;28;20044;-37
2021/04/29 01:05:14;;;;;;;26.88;19.60;;;22.40;45.70;;;;;;5111653;28;20135;-37
2021/04/29 01:07:49;;;;;;;27.52;19.63;;;22.40;45.80;;;;;;5057235;28;20120;-37
2021/04/29 01:10:28;;;;;;;27.80;19.33;;;22.30;45.70;;;;;;5075109;28;20041;-37
2021/04/29 01:13:25;;;;;;;28.67;19.40;;;22.30;45.70;;;;;;5059186;28;20170;-37
2021/04/29 01:15:53;;;;;;;30.30;20.35;;;22.30;45.70;;;;;;5059412;28;20044;-37
2021/04/29 01:18:22;;;;;;;28.65;19.33;;;22.30;45.70;;;;;;5058796;28;20052;-37
2021/04/29 01:21:11;;;;;;;28.05;19.20;;;22.30;45.70;;;;;;5058971;28;20056;-37
2021/04/29 01:23:45;;;;;;;28.55;19.55;;;22.30;45.70;;;;;;5058585;28;20120;-37
2021/04/29 01:26:22;;;;;;;28.13;20.00;;;22.30;45.70;;;;;;5047293;28;20048;-37
2021/04/29 01:28:51;;;;;;;27.45;18.95;;;22.30;45.70;;;;;;5059132;28;20053;-37
2021/04/29 01:31:22;;;;;;;28.10;19.55;;;22.30;45.70;;;;;;5057744;28;20057;-37
2021/04/29 01:33:50;;;;;;;27.50;18.95;;;22.30;45.70;;;;;;5059174;28;20528;-37
2021/04/29 01:36:20;;;;;;;26.77;17.75;;;22.30;45.70;;;;;;5059195;28;20128;-38
2021/04/29 01:38:48;;;;;;;28.95;18.85;;;22.30;45.70;;;;;;5059141;28;20049;-37
2021/04/29 01:41:14;;;;;;;25.40;18.60;;;22.30;45.70;;;;;;5058258;28;20040;-37
2021/04/29 01:43:42;;;;;;;25.45;17.67;;;22.30;45.70;;;;;;5070637;28;20091;-37
2021/04/29 01:46:09;;;;;;;24.60;17.65;;;22.30;45.70;;;;;;5111453;28;20050;-37
2021/04/29 01:48:37;;;;;;;27.00;18.88;;;22.30;45.70;;;;;;5111938;28;20039;-37
2021/04/29 01:51:04;;;;;;;29.60;19.73;;;22.30;45.70;;;;;;5111920;28;20048;-37
2021/04/29 01:53:31;;;;;;;27.05;18.80;;;22.30;45.70;;;;;;5110968;28;20104;-37
2021/04/29 01:55:58;;;;;;;27.25;18.98;;;22.30;45.70;;;;;;5111371;28;20054;-37
2021/04/29 01:58:25;;;;;;;28.08;19.52;;;22.30;45.70;;;;;;5101717;28;20108;-37
2021/04/29 02:00:52;;;;;;;28.58;18.98;;;22.30;45.70;;;;;;5111270;28;20050;-38
2021/04/29 02:03:19;;;;;;;25.75;18.20;;;22.30;45.70;;;;;;5111944;28;20075;-37
2021/04/29 02:05:46;;;;;;;26.40;18.00;;;22.30;45.70;;;;;;5111818;28;20039;-37
2021/04/29 02:08:13;;;;;;;26.17;18.75;;;22.30;45.70;;;;;;5110454;27;20036;-37
2021/04/29 02:10:39;;;;;;;25.52;17.98;;;22.30;45.70;;;;;;5111355;27;20044;-37
2021/04/29 02:13:12;;;;;;;27.85;18.45;;;22.30;45.70;;;;;;5110869;28;20051;-37
2021/04/29 02:15:44;;;;;;;25.23;17.85;;;22.30;45.70;;;;;;5110375;28;20044;-39
2021/04/29 02:18:13;;;;;;;26.48;17.77;;;22.30;45.70;;;;;;5111719;28;20469;-37
2021/04/29 02:20:42;;;;;;;23.90;16.85;;;22.30;45.70;;;;;;5111288;28;20047;-37
2021/04/29 02:23:22;;;;;;;25.13;17.75;;;22.30;45.70;;;;;;5111035;28;20078;-37
2021/04/29 02:25:53;;;;;;;25.00;17.48;;;22.30;45.70;;;;;;5111743;27;20495;-37
2021/04/29 02:28:21;;;;;;;26.48;18.77;;;22.30;45.70;;;;;;5100808;28;20048;-38
2021/04/29 02:30:49;;;;;;;25.95;18.38;;;22.30;45.70;;;;;;5109625;28;20040;-37
2021/04/29 02:33:20;;;;;;;24.35;17.63;;;22.30;45.70;;;;;;5111318;28;20464;-38
2021/04/29 02:35:48;;;;;;;26.08;18.00;;;22.30;45.70;;;;;;5111488;28;20047;-38
2021/04/29 02:38:16;;;;;;;26.48;17.27;;;22.30;45.70;;;;;;5111104;28;20043;-37
2021/04/29 02:40:44;;;;;;;25.55;17.38;;;22.30;45.70;;;;;;5110559;28;20055;-37
2021/04/29 02:43:14;;;;;;;25.55;17.60;;;22.30;45.70;;;;;;5110361;28;20140;-37
2021/04/29 02:45:43;;;;;;;23.13;16.70;;;22.30;45.70;;;;;;5110577;28;20040;-37
2021/04/29 02:48:15;;;;;;;24.77;17.05;;;22.30;46.30;;;;;;5110357;28;20505;-37
2021/04/29 02:50:45;;;;;;;25.27;17.27;;;22.30;45.70;;;;;;5110938;28;20048;-38
2021/04/29 02:53:13;;;;;;;23.88;17.48;;;22.30;45.70;;;;;;5111052;28;20096;-38
2021/04/29 02:55:42;;;;;;;25.77;17.85;;;22.30;45.70;;;;;;5111123;28;20054;-39
2021/04/29 02:58:10;;;;;;;25.17;17.60;;;22.30;45.70;;;;;;5110152;28;20082;-37
2021/04/29 03:00:38;;;;;;;25.95;17.52;;;22.30;45.70;;;;;;5110367;28;20052;-37
2021/04/29 03:03:06;;;;;;;22.42;16.58;;;22.30;45.70;;;;;;5110156;28;20044;-38
2021/04/29 03:05:33;;;;;;;25.10;17.05;;;22.30;45.70;;;;;;5111293;28;20092;-38
2021/04/29 03:07:59;;;;;;;24.55;17.02;;;22.30;45.70;;;;;;5133959;27;20391;-38
2021/04/29 03:10:27;;;;;;;23.98;16.67;;;22.30;45.70;;;;;;5111081;28;20093;-39
2021/04/29 03:12:54;;;;;;;22.92;16.60;;;22.30;45.70;;;;;;5110131;28;20050;-39
2021/04/29 03:15:21;;;;;;;24.70;17.17;;;22.30;45.70;;;;;;5109953;28;20044;-37
2021/04/29 03:17:47;;;;;;;25.35;16.88;;;22.30;45.70;;;;;;5111075;28;20051;-38
2021/04/29 03:20:34;;;;;;;23.75;16.42;;;22.30;45.70;;;;;;5110339;28;20107;-38
2021/04/29 03:23:01;;;;;;;24.33;17.27;;;22.30;45.70;;;;;;5110894;28;20092;-38
2021/04/29 03:25:27;;;;;;;24.67;16.48;;;22.30;45.70;;;;;;5110225;28;20048;-37
2021/04/29 03:27:54;;;;;;;24.85;16.98;;;22.30;45.70;;;;;;5110449;28;20505;-38
2021/04/29 03:30:21;;;;;;;23.52;17.17;;;22.20;45.60;;;;;;5109967;28;20059;-38
2021/04/29 03:32:48;;;;;;;22.42;15.90;;;22.20;45.60;;;;;;5099649;28;20129;-38
2021/04/29 03:35:15;;;;;;;24.92;16.77;;;22.20;45.60;;;;;;5110626;28;20419;-37
2021/04/29 03:37:41;;;;;;;23.55;16.42;;;22.20;45.60;;;;;;5100756;28;20108;-38
2021/04/29 03:40:09;;;;;;;24.17;16.75;;;22.20;45.60;;;;;;5109709;28;20047;-38
2021/04/29 03:42:36;;;;;;;22.05;16.17;;;22.20;45.60;;;;;;5112713;28;20105;-38
2021/04/29 03:45:07;;;;;;;22.95;16.15;;;22.20;45.60;;;;;;5112934;28;20043;-39
2021/04/29 03:47:34;;;;;;;23.65;15.93;;;22.20;45.60;;;;;;5114532;28;20116;-38
2021/04/29 03:50:00;;;;;;;22.73;15.48;;;22.20;45.60;;;;;;5087918;28;20104;-38
2021/04/29 03:52:27;;;;;;;21.00;16.20;;;22.20;45.60;;;;;;5114855;27;20105;-38
2021/04/29 03:54:54;;;;;;;22.38;15.77;;;22.20;45.60;;;;;;5113219;28;20056;-38
2021/04/29 03:57:21;;;;;;;21.60;15.30;;;22.20;45.60;;;;;;5113468;27;20518;-38
2021/04/29 03:59:47;;;;;;;23.48;16.08;;;22.20;45.60;;;;;;5113048;27;20989;-38
2021/04/29 04:02:14;;;;;;;22.23;15.82;;;22.20;45.60;;;;;;5113826;28;20044;-39
2021/04/29 04:04:41;;;;;;;24.10;16.33;;;22.20;45.60;;;;;;5114327;28;20116;-38
2021/04/29 04:07:07;;;;;;;22.92;16.30;;;22.20;45.60;;;;;;5112602;28;20052;-38
2021/04/29 04:09:34;;;;;;;22.83;16.25;;;22.20;45.60;;;;;;5114589;28;20047;-38
2021/04/29 04:12:01;;;;;;;23.77;17.08;;;22.20;45.60;;;;;;5113283;28;20044;-39
2021/04/29 04:14:32;;;;;;;22.75;15.70;;;22.20;45.60;;;;;;5113086;28;20464;-38
2021/04/29 04:16:58;;;;;;;20.77;14.77;;;22.20;45.60;;;;;;5104343;27;20044;-38
2021/04/29 04:19:25;;;;;;;21.50;15.32;;;22.20;45.60;;;;;;5113504;28;20502;-38
2021/04/29 04:21:52;;;;;;;21.75;15.43;;;22.20;45.60;;;;;;5113513;28;20051;-38
2021/04/29 04:24:19;;;;;;;21.65;15.18;;;22.20;45.60;;;;;;5113639;27;20112;-38
2021/04/29 04:26:46;;;;;;;23.80;15.57;;;22.20;45.60;;;;;;5113637;28;20035;-37
2021/04/29 04:29:12;;;;;;;22.30;15.35;;;22.20;45.60;;;;;;5112241;28;20043;-37
2021/04/29 04:31:39;;;;;;;22.70;14.70;;;22.20;45.60;;;;;;5103159;27;20075;-38
2021/04/29 04:34:06;;;;;;;21.65;15.60;;;22.20;45.60;;;;;;5114287;27;20047;-38
2021/04/29 04:36:32;;;;;;;23.60;16.33;;;22.20;45.60;;;;;;5112807;27;20415;-38
2021/04/29 04:39:01;;;;;;;22.27;15.82;;;22.20;45.60;;;;;;5112811;27;20457;-39
2021/04/29 04:41:28;;;;;;;22.10;15.20;;;22.20;45.50;;;;;;5112439;28;20104;-38
2021/04/29 04:43:56;;;;;;;21.73;15.90;;;22.20;45.60;;;;;;5112847;27;20051;-38
2021/04/29 04:46:24;;;;;;;20.88;15.20;;;22.20;45.50;;;;;;5113419;28;20055;-39
2021/04/29 04:48:51;;;;;;;21.65;14.77;;;22.20;45.50;;;;;;5113513;28;20170;-38
2021/04/29 04:51:18;;;;;;;19.77;14.05;;;22.20;45.60;;;;;;5112277;28;20047;-39
2021/04/29 04:53:44;;;;;;;21.15;14.73;;;22.20;45.50;;;;;;5111622;28;20544;-39
2021/04/29 04:56:11;;;;;;;21.50;15.00;;;22.20;45.60;;;;;;5112490;28;20055;-38
2021/04/29 04:58:38;;;;;;;21.55;15.23;;;22.20;45.50;;;;;;5112338;28;20403;-38
2021/04/29 05:01:05;;;;;;;22.05;15.32;;;22.20;45.50;;;;;;5112542;28;20043;-38
2021/04/29 05:03:31;;;;;;;20.63;14.80;;;22.20;45.50;;;;;;5112560;28;20040;-39
2021/04/29 05:05:58;;;;;;;22.48;15.18;;;22.20;45.50;;;;;;5112192;27;20112;-38
2021/04/29 05:08:25;;;;;;;20.35;14.93;;;22.20;45.50;;;;;;5111326;28;20051;-38
2021/04/29 05:10:51;;;;;;;21.05;14.57;;;22.20;45.50;;;;;;5111945;28;20047;-39
2021/04/29 05:13:18;;;;;;;22.10;15.45;;;22.20;45.50;;;;;;5112129;28;20091;-38
2021/04/29 05:15:45;;;;;;;21.10;14.57;;;22.20;45.50;;;;;;5112300;28;20048;-39
2021/04/29 05:18:11;;;;;;;20.23;14.10;;;22.20;45.50;;;;;;5112483;27;20150;-40
2021/04/29 05:20:38;;;;;;;19.33;13.95;;;22.20;45.50;;;;;;5112387;28;20059;-39
2021/04/29 05:23:05;;;;;;;22.83;15.20;;;22.20;45.50;;;;;;5111591;28;20047;-37
2021/04/29 05:25:31;;;;;;;21.25;14.40;;;22.20;45.50;;;;;;5111863;28;20047;-39
2021/04/29 05:28:00;;;;;;;21.58;15.27;;;22.20;45.50;;;;;;5112272;28;23900;-39
2021/04/29 05:30:27;;;;;;;20.17;14.38;;;22.20;45.50;;;;;;5112472;28;20043;-37
2021/04/29 05:32:54;;;;;;;21.25;15.20;;;22.20;45.50;;;;;;5111668;28;20054;-38
2021/04/29 05:35:20;;;;;;;20.02;14.23;;;22.20;45.50;;;;;;5100557;28;20056;-40
2021/04/29 05:37:47;;;;;;;18.90;13.57;;;22.20;45.50;;;;;;5111428;28;20196;-38
2021/04/29 05:40:14;;;;;;;20.20;14.05;;;22.20;45.50;;;;;;5112136;27;20054;-38
2021/04/29 05:42:41;;;;;;;19.60;14.10;;;22.20;45.50;;;;;;5111605;28;20049;-37
2021/04/29 05:45:09;;;;;;;22.80;14.93;;;22.20;45.50;;;;;;5111460;28;20047;-37
2021/04/29 05:47:36;;;;;;;19.50;13.55;;;22.20;45.50;;;;;;5111536;28;20048;-37
2021/04/29 05:50:05;;;;;;;20.60;14.23;;;22.20;45.50;;;;;;5099631;28;20050;-38
2021/04/29 05:52:32;;;;;;;20.58;13.63;;;22.20;45.50;;;;;;5102198;28;20051;-38
2021/04/29 05:54:59;;;;;;;18.95;13.55;;;22.30;45.50;;;;;;5111307;28;20059;-38
2021/04/29 05:57:26;;;;;;;18.73;14.20;;;22.20;45.50;;;;;;5111612;28;20130;-38
2021/04/29 05:59:53;;;;;;;19.55;13.73;;;22.30;45.50;;;;;;5111707;28;20085;-39
2021/04/29 06:02:20;;;;;;;20.60;14.43;;;22.20;45.50;;;;;;5110838;28;20047;-39
2021/04/29 06:04:46;;;;;;;19.50;13.57;;;22.30;45.50;;;;;;5110733;28;20046;-38
2021/04/29 06:07:14;;;;;;;20.42;14.55;;;22.30;45.50;;;;;;5110718;28;20054;-41
2021/04/29 06:09:41;;;;;;;19.67;13.52;;;22.30;45.50;;;;;;5111851;28;20052;-39
2021/04/29 06:12:13;;;;;;;18.95;13.45;;;22.30;45.50;;;;;;5111095;28;20048;-39
2021/04/29 06:14:40;;;;;;;18.67;13.23;;;22.30;45.50;;;;;;5111589;27;20043;-39
2021/04/29 06:17:07;;;;;;;19.63;13.40;;;22.30;45.50;;;;;;5111087;28;20044;-39
2021/04/29 06:19:36;;;;;;;18.77;12.70;;;22.30;45.50;;;;;;5110417;28;20126;-39
2021/04/29 06:22:03;;;;;;;18.73;13.52;;;22.30;45.50;;;;;;5109671;28;20062;-39
2021/04/29 06:24:30;;;;;;;19.88;13.57;;;22.30;45.50;;;;;;5111374;28;20051;-39
2021/04/29 06:26:57;;;;;;;18.27;13.68;;;22.30;45.50;;;;;;5101032;28;20048;-40
2021/04/29 06:29:24;;;;;;;17.42;13.05;;;22.30;45.50;;;;;;5110327;28;20054;-39
2021/04/29 06:31:51;;;;;;;19.60;13.07;;;22.30;45.50;;;;;;5111441;28;20063;-39
2021/04/29 06:34:17;;;;;;;18.92;13.73;;;22.30;45.40;;;;;;5109716;28;20044;-39
2021/04/29 06:36:44;;;;;;;19.92;13.95;;;22.30;45.40;;;;;;5110825;28;20088;-39
2021/04/29 06:39:12;;;;;;;20.45;13.77;;;22.30;45.40;;;;;;5111287;28;20051;-39
2021/04/29 06:41:38;;;;;;;19.40;13.38;;;22.30;45.40;;;;;;5101596;28;20040;-40
2021/04/29 06:44:05;;;;;;;19.80;13.73;;;22.30;45.40;;;;;;5110630;28;20087;-39
2021/04/29 06:46:32;;;;;;;18.02;12.98;;;22.30;45.40;;;;;;5110632;28;20096;-39
2021/04/29 06:48:58;;;;;;;19.50;13.50;;;22.30;45.40;;;;;;5109972;28;20062;-39
2021/04/29 06:51:25;;;;;;;17.98;12.82;;;22.30;45.30;;;;;;5111063;28;20043;-39
2021/04/29 06:54:06;;;;;;;18.50;13.35;;;22.30;45.30;;;;;;5111273;28;20134;-39
2021/04/29 06:56:36;;;;;;;19.00;13.32;;;22.30;45.30;;;;;;5110313;28;20081;-39
2021/04/29 06:59:04;;;;;;;15.98;11.70;;;22.30;45.30;;;;;;5110132;28;20052;-39
2021/04/29 07:01:31;;;;;;;20.08;13.60;;;22.30;45.30;;;;;;5110665;28;20741;-39
2021/04/29 07:03:58;;;;;;;19.25;12.82;;;22.30;45.40;;;;;;5109701;28;20402;-39
2021/04/29 07:06:25;;;;;;;18.13;12.80;;;22.30;45.30;;;;;;5110801;28;20087;-43
2021/04/29 07:08:58;;;;;;;17.85;12.30;;;22.40;45.50;;;;;;5110407;28;20039;-39
2021/04/29 07:11:26;;;;;;;17.45;12.77;;;22.40;45.40;;;;;;5110659;28;20054;-39
2021/04/29 07:13:52;;;;;;;16.92;12.30;;;22.40;45.40;;;;;;5109770;28;20059;-40
2021/04/29 07:16:19;;;;;;;17.48;12.30;;;22.40;45.40;;;;;;5101124;28;20058;-39
2021/04/29 07:18:46;;;;;;;17.35;11.98;;;22.40;45.40;;;;;;5104402;28;20147;-39
2021/04/29 07:21:12;;;;;;;16.88;12.95;;;22.40;45.40;;;;;;5113917;28;20048;-41
2021/04/29 07:23:39;;;;;;;17.77;13.05;;;22.40;45.40;;;;;;5114685;28;20487;-40
2021/04/29 07:26:11;;;;;;;17.58;12.65;;;22.40;45.40;;;;;;5115081;28;20506;-40
2021/04/29 07:28:38;;;;;;;17.38;12.60;;;22.40;45.40;;;;;;5113373;28;20051;-40
2021/04/29 07:31:04;;;;;;;17.05;11.98;;;22.40;45.30;;;;;;5114619;27;20043;-39
2021/04/29 07:33:31;;;;;;;17.75;12.88;;;22.40;45.30;;;;;;5114526;28;20071;-40
2021/04/29 07:35:58;;;;;;;16.35;11.80;;;22.40;45.30;;;;;;5114546;27;20100;-39
2021/04/29 07:38:25;;;;;;;16.33;11.82;;;22.40;45.30;;;;;;5114382;28;20098;-39
2021/04/29 07:40:51;;;;;;;16.98;12.00;;;22.40;45.30;;;;;;5114978;28;20066;-39
2021/04/29 07:43:18;;;;;;;17.92;12.55;;;22.40;45.30;;;;;;5113207;27;20075;-39
2021/04/29 07:45:45;;;;;;;17.27;11.95;;;22.40;45.30;;;;;;5113648;28;20040;-39
2021/04/29 07:48:11;;;;;;;16.05;11.60;;;22.40;45.30;;;;;;5113798;28;20075;-39
2021/04/29 07:50:38;;;;;;;16.45;11.85;;;22.40;45.30;;;;;;5113613;28;20051;-39
2021/04/29 07:53:05;;;;;;;15.00;10.88;;;22.40;45.30;;;;;;5114401;28;20054;-39
2021/04/29 07:55:32;;;;;;;16.70;11.55;;;22.40;45.30;;;;;;5114151;27;20060;-39
2021/04/29 07:57:59;;;;;;;14.40;11.20;;;22.50;45.40;;;;;;5113725;27;20648;-39
2021/04/29 08:00:28;;;;;;;16.05;11.63;;;22.40;45.30;;;;;;5112873;28;20055;-39
2021/04/29 08:02:55;;;;;;;16.27;11.27;;;22.50;45.30;;;;;;5112964;28;20047;-39
2021/04/29 08:05:22;;;;;;;16.80;12.18;;;22.50;45.30;;;;;;5114059;28;20101;-40
2021/04/29 08:07:50;;;;;;;16.42;11.43;;;22.50;45.30;;;;;;5113413;28;20043;-38
2021/04/29 08:10:18;;;;;;;15.18;10.88;;;22.50;45.30;;;;;;5113704;28;20048;-39
2021/04/29 08:12:45;;;;;;;15.90;11.65;;;22.50;45.30;;;;;;5113159;28;20059;-39
2021/04/29 08:15:12;;;;;;;14.35;10.30;;;22.50;45.30;;;;;;5113181;28;20104;-38
2021/04/29 08:17:38;;;;;;;16.13;11.68;;;22.50;45.30;;;;;;5113167;28;21502;-39
2021/04/29 08:20:06;;;;;;;14.90;10.75;;;22.50;45.30;;;;;;5103607;28;20126;-39
2021/04/29 08:22:33;;;;;;;15.48;11.18;;;22.50;45.30;;;;;;5113962;28;20059;-39
2021/04/29 08:25:00;;;;;;;16.65;11.27;;;22.50;45.30;;;;;;5112981;28;20097;-37
2021/04/29 08:27:27;;;;;;;16.65;11.05;;;22.50;45.30;;;;;;5111971;28;20082;-38
2021/04/29 08:30:03;;;;;;;15.57;10.90;;;22.50;45.40;;;;;;5112474;27;20051;-37
2021/04/29 08:32:30;;;;;;;14.55;10.63;;;22.50;45.30;;;;;;5112496;27;20138;-38
2021/04/29 08:34:56;;;;;;;16.65;11.40;;;22.50;45.30;;;;;;5113423;28;20043;-38
2021/04/29 08:37:23;;;;;;;15.20;11.05;;;22.50;45.40;;;;;;5113637;28;20124;-38
2021/04/29 08:39:50;;;;;;;16.77;10.50;;;22.50;45.30;;;;;;5113368;28;20536;-38
2021/04/29 08:42:16;;;;;;;16.70;11.25;;;22.50;45.40;;;;;;5113236;27;20048;-37
2021/04/29 08:44:43;;;;;;;14.35;10.55;;;22.50;45.40;;;;;;5113071;27;20047;-39
2021/04/29 08:47:17;;;;;;;;;;;22.50;45.40;;;;;;5126069;27;20047;-41
2021/04/29 08:49:44;;;;;;;15.15;10.75;;;22.50;45.40;;;;;;5115767;27;19920;-39
2021/04/29 08:52:11;;;;;;;15.73;11.02;;;22.50;45.40;;;;;;5114405;27;20070;-38
2021/04/29 08:54:38;;;;;;;15.82;11.20;;;22.50;45.40;;;;;;5116239;27;20445;-39
2021/04/29 08:57:06;;;;;;;16.83;11.13;;;22.50;45.40;;;;;;5114355;28;20398;-39
2021/04/29 08:59:34;;;;;;;14.43;9.82;;;22.50;45.40;;;;;;5115685;27;20036;-39
2021/04/29 09:02:00;;;;;;;14.40;10.10;;;22.60;45.50;;;;;;5114303;28;20391;-38
2021/04/29 09:04:39;;;;;;;14.95;10.75;;;22.50;45.40;;;;;;5115237;27;20043;-41
2021/04/29 09:07:17;;;;;;;13.27;9.82;;;22.50;45.60;;;;;;5114789;27;20047;-39
2021/04/29 09:09:45;;;;;;;12.63;10.02;;;22.50;45.40;;;;;;5115421;27;20530;-40
2021/04/29 09:12:12;;;;;;;14.38;10.68;;;22.50;45.40;;;;;;5113550;28;20112;-38
2021/04/29 09:14:42;;;;;;;13.60;10.13;;;22.50;45.40;;;;;;5113924;28;20044;-38
2021/04/29 09:17:10;;;;;;;13.88;10.18;;;22.50;45.40;;;;;;5097786;27;20048;-38
2021/04/29 09:19:48;;;;;;;13.43;10.05;;;22.60;45.50;;;;;;5130932;27;20134;-38
2021/04/29 09:22:21;;;;;;;14.68;10.20;;;22.60;45.50;;;;;;5096218;28;20048;-38
2021/04/29 09:24:48;;;;;;;13.45;9.90;;;22.60;45.50;;;;;;5115468;27;20051;-37
2021/04/29 09:27:18;;;;;;;13.10;9.50;;;22.60;45.50;;;;;;5114368;27;20229;-38
2021/04/29 09:29:52;;;;;;;13.57;9.60;;;22.60;45.50;;;;;;5115870;27;20411;-38
2021/04/29 09:32:29;;;;;;;13.15;9.55;;;22.60;45.50;;;;;;5113891;27;20048;-38
2021/04/29 09:34:57;;;;;;;12.90;9.63;;;22.60;45.50;;;;;;5130846;27;20092;-38
2021/04/29 09:37:38;;;;;;;12.82;9.68;;;22.60;45.50;;;;;;5131415;27;20563;-38
2021/04/29 09:40:18;;;;;;;12.90;9.73;;;22.60;45.50;;;;;;5112325;28;20099;-39
2021/04/29 09:42:48;;;;;;;12.63;9.15;;;22.60;45.50;;;;;;5096832;27;20118;-39
2021/04/29 09:45:30;;;;;;;15.02;10.38;;;22.60;45.50;;;;;;5096551;27;20392;-38
2021/04/29 09:48:00;;;;;;;11.30;8.68;;;22.60;45.50;;;;;;5097216;27;20107;-38
2021/04/29 09:50:33;;;;;;;;;;;22.60;45.50;;;;;;5097566;27;20127;-38
2021/04/29 09:53:03;;;;;;;13.70;10.10;;;22.60;45.50;;;;;;5114461;27;19949;-38
2021/04/29 09:55:32;;;;;;;12.93;9.43;;;22.60;45.50;;;;;;5132123;27;20486;-42
2021/04/29 09:58:10;;;;;;;13.95;9.75;;;22.60;45.50;;;;;;5113903;27;20457;-37
2021/04/29 10:00:37;;;;;;;12.25;9.45;;;22.60;45.50;;;;;;5130149;27;20042;-38
2021/04/29 10:03:05;;;;;;;14.32;10.02;;;22.60;45.50;;;;;;5112547;27;20503;-38
2021/04/29 10:05:37;;;;;;;13.02;9.18;;;22.60;45.50;;;;;;5113656;28;20593;-39
2021/04/29 10:08:06;;;;;;;13.25;9.32;;;22.60;45.50;;;;;;5120546;27;20040;-37
2021/04/29 10:10:35;;;;;;;14.23;9.85;;;22.60;45.50;;;;;;5130805;27;20051;-38
2021/04/29 10:13:05;;;;;;;12.32;9.15;;;22.70;45.60;;;;;;5114346;27;20055;-39
2021/04/29 10:15:34;;;;;;;13.80;9.90;;;22.70;45.60;;;;;;5114154;27;20051;-38
2021/04/29 10:18:01;;;;;;;11.48;8.68;;;22.70;45.60;;;;;;5113792;27;20086;-39
2021/04/29 10:20:30;;;;;;;13.30;9.48;;;22.70;45.60;;;;;;5113930;27;20409;-39
2021/04/29 10:23:00;;;;;;;12.30;9.10;;;22.70;45.50;;;;;;5112507;28;20044;-39
2021/04/29 10:25:31;;;;;;;13.35;9.57;;;22.70;45.50;;;;;;5112488;28;20047;-38
2021/04/29 10:27:59;;;;;;;13.77;10.10;;;22.70;45.50;;;;;;5114936;27;20047;-40
2021/04/29 10:30:34;;;;;;;12.02;8.60;;;22.70;45.50;;;;;;5112296;28;20120;-38
2021/04/29 10:33:16;;;;;;;12.68;9.32;;;22.70;45.50;;;;;;5125412;27;20055;-39
2021/04/29 10:35:53;;;;;;;11.93;8.82;;;22.70;45.50;;;;;;5118497;27;20077;-39
2021/04/29 10:38:29;;;;;;;12.45;9.38;;;22.70;45.50;;;;;;5126642;27;20646;-43
2021/04/29 10:40:58;;;;;;;10.95;8.45;;;22.70;45.50;;;;;;5129387;27;20051;-39
2021/04/29 10:43:32;;;;;;;12.27;9.05;;;22.70;45.50;;;;;;5118056;27;20402;-38
2021/04/29 10:46:03;;;;;;;;;;;22.70;45.50;;;;;;5113073;28;20078;-40
2021/04/29 10:48:31;;;;;;;12.10;8.55;;;22.70;45.50;;;;;;5112488;28;19919;-41
2021/04/29 10:51:11;;;;;;;12.77;9.40;;;22.70;45.50;;;;;;5112613;28;20043;-40
2021/04/29 10:53:40;;;;;;;11.45;8.45;;;22.70;45.50;;;;;;5113869;28;20054;-39
2021/04/29 10:56:14;;;;;;;11.80;8.77;;;22.70;45.50;;;;;;5113418;28;20047;-38
2021/04/29 10:58:41;;;;;;;;;;;22.70;45.50;;;;;;5125288;28;20475;-38
2021/04/29 11:01:15;;;;;;;12.27;8.43;;;22.70;45.50;;;;;;5117627;28;19963;-39
2021/04/29 11:03:48;;;;;;;;;;;22.70;45.50;;;;;;5107399;28;20728;-39
2021/04/29 11:06:16;;;;;;;12.00;8.60;;;22.70;46.10;;;;;;5130308;28;20374;-42
2021/04/29 11:08:49;;;;;;;11.63;8.40;;;22.70;45.50;;;;;;5118189;28;20449;-40
2021/04/29 11:11:28;;;;;;;11.55;8.52;;;22.70;45.50;;;;;;5113321;28;20519;-40
2021/04/29 11:14:00;;;;;;;11.00;8.70;;;22.70;45.60;;;;;;5112488;28;20105;-39
2021/04/29 11:16:28;;;;;;;10.68;7.93;;;22.80;45.60;;;;;;5114617;28;20059;-38
2021/04/29 11:18:55;;;;;;;11.00;8.25;;;22.70;45.50;;;;;;5113204;28;20449;-41
2021/04/29 11:21:27;;;;;;;11.10;8.18;;;22.70;45.50;;;;;;5113107;28;20138;-39
2021/04/29 11:23:54;;;;;;;11.60;7.80;;;22.80;45.60;;;;;;5113326;28;20091;-38
2021/04/29 11:26:21;;;;;;;11.68;8.57;;;22.80;45.60;;;;;;5113116;28;20217;-39
2021/04/29 11:28:52;;;;;;;12.07;9.00;;;22.80;45.60;;;;;;5111791;28;20039;-40
2021/04/29 11:31:19;;;;;;;11.18;8.07;;;22.80;45.60;;;;;;5118365;28;20050;-39
2021/04/29 11:33:48;;;;;;;11.95;8.70;;;22.80;45.60;;;;;;5124942;28;20043;-39
2021/04/29 11:36:26;;;;;;;9.80;7.82;;;22.80;45.60;;;;;;5109725;28;20510;-39
2021/04/29 11:38:56;;;;;;;11.45;8.02;;;22.80;45.60;;;;;;5111022;28;20051;-39
2021/04/29 11:41:25;;;;;;;11.48;8.38;;;22.80;45.60;;;;;;5110374;28;20055;-39
2021/04/29 11:44:22;;;;;;;11.05;8.40;;;22.80;45.60;;;;;;5110684;28;20065;-39
2021/04/29 11:46:49;;;;;;;10.95;8.40;;;22.80;45.60;;;;;;5108880;28;20071;-41
2021/04/29 11:49:16;;;;;;;11.40;8.38;;;22.80;45.60;;;;;;5100285;28;20070;-39
2021/04/29 11:51:48;;;;;;;12.85;8.63;;;22.80;45.60;;;;;;5110130;28;20046;-40
2021/04/29 11:54:19;;;;;;;10.45;7.45;;;22.80;45.60;;;;;;5108984;28;20056;-40
2021/04/29 11:56:52;;;;;;;11.02;8.18;;;22.80;45.60;;;;;;5109862;28;20063;-39
2021/04/29 11:59:19;;;;;;;10.15;7.85;;;22.80;45.60;;;;;;5110072;28;20421;-40
2021/04/29 12:01:56;;;;;;;12.15;8.43;;;22.80;45.60;;;;;;5110217;28;20058;-39
2021/04/29 12:04:24;;;;;;;11.38;8.15;;;22.80;45.60;;;;;;5113154;27;20043;-38
2021/04/29 12:06:59;;;;;;;10.65;8.05;;;22.80;45.60;;;;;;5113254;28;20044;-39
2021/04/29 12:09:28;;;;;;;10.50;7.47;;;22.80;46.20;;;;;;5112951;27;20071;-40
2021/04/29 12:12:10;;;;;;;9.95;7.53;;;22.80;45.60;;;;;;5113381;28;20054;-41
2021/04/29 12:14:38;;;;;;;11.38;8.20;;;22.80;45.70;;;;;;5113171;28;20056;-38
2021/04/29 12:17:06;;;;;;;11.38;7.97;;;22.80;45.70;;;;;;5114003;28;20064;-40
2021/04/29 12:19:35;;;;;;;10.25;7.82;;;22.80;45.70;;;;;;5112644;28;20538;-39
2021/04/29 12:22:04;;;;;;;10.93;8.13;;;22.80;45.70;;;;;;5113227;28;20130;-39
2021/04/29 12:24:41;;;;;;;10.52;8.07;;;22.80;45.70;;;;;;5113576;27;20054;-40
2021/04/29 12:27:38;;;;;;;10.77;7.47;;;22.80;45.70;;;;;;5112245;28;20442;-39
2021/04/29 12:30:07;;;;;;;10.90;7.40;;;22.80;45.70;;;;;;5111462;28;20453;-39
2021/04/29 12:32:39;;;;;;;10.32;7.32;;;22.80;45.70;;;;;;5112479;27;20404;-39
2021/04/29 12:35:07;;;;;;;10.85;8.15;;;22.80;45.70;;;;;;5112982;28;20043;-39
2021/04/29 12:37:34;;;;;;;10.98;7.95;;;22.80;45.70;;;;;;5113210;28;20528;-39
2021/04/29 12:40:00;;;;;;;10.98;7.78;;;22.80;45.70;;;;;;5086151;28;20125;-40